| time (UTC) | temp C | wind direction | speed KPH | gust KPH | rain 1hr cm | rain 24hr cm | rain mn cm | humidity % | barometer mb |
| 20260507171558 | -17 | 63 | 3.2 | 6.4 | 0.00 | 0.00 | 0.00 | 1016.7 | |
| 20260507170553 | 37 | 83 | 3.2 | 11.3 | 0.00 | 0.00 | 0.00 | 99 | 1016.5 |
| 20260507165549 | 14 | 49 | 3.2 | 12.9 | 0.00 | 0.00 | 0.00 | 99 | 1016.3 |
| 20260507164546 | 2 | 92 | 3.2 | 9.7 | 0.00 | 0.00 | 0.00 | 99 | 1016.3 |
| 20260507163541 | -1 | 87 | 3.2 | 6.4 | 0.00 | 0.00 | 0.00 | 98 | 1016.2 |
| 20260507162558 | -1 | 65 | 3.2 | 9.7 | 0.00 | 0.00 | 0.00 | 98 | 1016.1 |
| 20260507161535 | -1 | 74 | 4.8 | 11.3 | 0.00 | 0.00 | 0.00 | 96 | 1016.0 |
| 20260507160531 | -1 | 65 | 4.8 | 9.7 | 0.00 | 0.00 | 0.00 | 98 | 1016.0 |
| 20260507155549 | -1 | 161 | 3.2 | 9.7 | 0.00 | 0.00 | 0.00 | 97 | 1016.0 |
| 20260507154525 | -1 | 71 | 3.2 | 9.7 | 0.00 | 0.00 | 0.00 | 99 | 1016.0 |
| 20260507153520 | -1 | 68 | 3.2 | 11.3 | 0.00 | 0.00 | 0.00 | 99 | 1015.9 |
| 20260507152516 | -1 | 189 | 4.8 | 14.5 | 0.00 | 0.00 | 0.00 | 94 | 1015.8 |
| 20260507151612 | -1 | 111 | 3.2 | 6.4 | 0.00 | 0.00 | 0.00 | 98 | 1015.8 |
| 20260507150609 | -1 | 83 | 3.2 | 11.3 | 0.00 | 0.00 | 0.00 | 96 | 1015.8 |
| 20260507145605 | -1 | 68 | 4.8 | 9.7 | 0.00 | 0.00 | 0.00 | 93 | 1015.7 |
| 20260507144602 | -1 | 116 | 4.8 | 12.9 | 0.00 | 0.00 | 0.00 | 94 | 1015.7 |
| 20260507143557 | -1 | 63 | 8.0 | 17.7 | 0.00 | 0.00 | 0.00 | 98 | 1015.6 |
| 20260507142614 | -1 | 8 | 4.8 | 11.3 | 0.00 | 0.00 | 0.00 | 98 | 1015.6 |
| 20260507141549 | -1 | 56 | 9.7 | 27.4 | 0.00 | 0.00 | 0.00 | 97 | 1015.6 |
| 20260507140545 | -1 | 47 | 3.2 | 6.4 | 0.00 | 0.00 | 0.00 | 96 | 1015.7 |
| 20260507135540 | -1 | 359 | 4.8 | 14.5 | 0.00 | 0.00 | 0.00 | 98 | 1015.6 |
| 20260507134536 | -1 | 92 | 4.8 | 11.3 | 0.00 | 0.00 | 0.00 | 99 | 1015.6 |
| 20260507133553 | -1 | 51 | 14.5 | 24.1 | 0.00 | 0.00 | 0.00 | 99 | 1015.6 |
| 20260507132529 | -1 | 55 | 3.2 | 6.4 | 0.00 | 0.00 | 0.00 | 96 | 1015.7 |
| 20260507131546 | -1 | 90 | 11.3 | 24.1 | 0.00 | 0.00 | 0.00 | 97 | 1015.5 |
| 20260507130521 | -1 | 88 | 4.8 | 11.3 | 0.00 | 0.00 | 0.00 | 96 | 1015.4 |
| 20260507125537 | -1 | 29 | 8.0 | 17.7 | 0.00 | 0.00 | 0.00 | 97 | 1015.4 |
| 20260507124613 | -1 | 122 | 3.2 | 9.7 | 0.00 | 0.00 | 0.00 | 98 | 1015.5 |
| 20260507123610 | -1 | 97 | 3.2 | 12.9 | 0.00 | 0.00 | 0.00 | 99 | 1015.4 |
| 20260507122627 | -1 | 68 | 4.8 | 12.9 | 0.00 | 0.00 | 0.00 | 98 | 1015.2 |
| 20260507121603 | -1 | 55 | 3.2 | 17.7 | 0.00 | 0.00 | 0.00 | 98 | 1015.2 |
| 20260507120600 | -1 | 23 | 3.2 | 12.9 | 0.00 | 0.00 | 0.00 | 93 | 1015.0 |
| 20260507115556 | -1 | 143 | 3.2 | 9.7 | 0.00 | 0.00 | 0.00 | 99 | 1015.1 |
| 20260507114553 | -1 | 336 | 4.8 | 11.3 | 0.00 | 0.00 | 0.00 | 97 | 1015.2 |
| 20260507113548 | -1 | 37 | 3.2 | 12.9 | 0.00 | 0.00 | 0.00 | 99 | 1015.2 |
| 20260507112545 | 3 | 188 | 3.2 | 11.3 | 0.00 | 0.00 | 0.00 | 98 | 1015.1 |
| 20260507111540 | -17 | 76 | 3.2 | 11.3 | 0.00 | 0.00 | 0.00 | 99 | 1015.2 |
| 20260507110537 | 44 | 56 | 4.8 | 17.7 | 0.00 | 0.00 | 0.00 | 91 | 1015.2 |
| 20260507105533 | -17 | 90 | 6.4 | 20.9 | 0.00 | 0.00 | 0.00 | 38 | 1015.1 |
| 20260507104550 | -17 | 93 | 6.4 | 17.7 | 0.00 | 0.00 | 0.00 | 1015.1 | |
| 20260507103546 | -17 | 45 | 8.0 | 14.5 | 0.00 | 0.00 | 0.00 | 49 | 1015.0 |
| 20260507102522 | -17 | 78 | 9.7 | 22.5 | 0.00 | 0.00 | 0.00 | 99 | 1015.0 |
| 20260507101517 | -17 | 21 | 9.7 | 25.7 | 0.00 | 0.00 | 0.00 | 59 | 1014.9 |
| 20260507100615 | -17 | 133 | 4.8 | 9.7 | 0.00 | 0.00 | 0.00 | 99 | 1014.7 |
| 20260507095628 | -17 | 9 | 3.2 | 12.9 | 0.00 | 0.00 | 0.00 | 99 | 1014.9 |
| 20260507094604 | -17 | 8 | 4.8 | 17.7 | 0.00 | 0.00 | 0.00 | 69 | 1014.6 |
| 20260507093601 | -17 | 74 | 4.8 | 14.5 | 0.00 | 0.00 | 0.00 | 69 | 1014.6 |
| 20260507092558 | -17 | 22 | 9.7 | 20.9 | 0.00 | 0.00 | 0.00 | 84 | 1014.5 |
| 20260507091554 | -17 | 100 | 3.2 | 14.5 | 0.00 | 0.00 | 0.00 | 59 | 1014.5 |
| 20260507090552 | -17 | 346 | 4.8 | 12.9 | 0.00 | 0.00 | 0.00 | 39 | 1014.4 |
| 20260507085546 | -17 | 93 | 11.3 | 20.9 | 0.00 | 0.00 | 0.00 | 99 | 1014.3 |
| 20260507084542 | -17 | 52 | 4.8 | 17.7 | 0.00 | 0.00 | 0.00 | 89 | 1014.3 |
| 20260507083539 | -17 | 57 | 12.9 | 22.5 | 0.00 | 0.00 | 0.00 | 68 | 1014.1 |
| 20260507082535 | -17 | 75 | 8.0 | 17.7 | 0.00 | 0.00 | 0.00 | 1014.1 | |
| 20260507081531 | -17 | 27 | 19.3 | 29.0 | 0.00 | 0.00 | 0.00 | 1014.0 | |
| 20260507080528 | -17 | 41 | 14.5 | 27.4 | 0.00 | 0.00 | 0.00 | 1013.9 | |
| 20260507075525 | -1 | 28 | 14.5 | 22.5 | 0.00 | 0.00 | 0.00 | 93 | 1013.8 |
| 20260507074541 | -1 | 45 | 14.5 | 24.1 | 0.00 | 0.00 | 0.00 | 93 | 1013.9 |
| 20260507073518 | -1 | 25 | 11.3 | 20.9 | 0.00 | 0.00 | 0.00 | 98 | 1014.0 |
| 20260507072613 | -1 | 46 | 11.3 | 17.7 | 0.00 | 0.00 | 0.00 | 96 | 1013.9 |
| 20260507071608 | -1 | 40 | 11.3 | 17.7 | 0.00 | 0.00 | 0.00 | 96 | 1013.8 |
| 20260507070605 | -1 | 40 | 6.4 | 14.5 | 0.00 | 0.00 | 0.00 | 97 | 1013.6 |
| 20260507065602 | -1 | 37 | 20.9 | 27.4 | 0.00 | 0.00 | 0.00 | 93 | 1013.6 |
| 20260507064558 | -1 | 26 | 16.1 | 24.1 | 0.00 | 0.00 | 0.00 | 93 | 1013.5 |
| 20260507063614 | -1 | 42 | 16.1 | 22.5 | 0.00 | 0.00 | 0.00 | 97 | 1013.5 |
| 20260507062611 | -1 | 39 | 16.1 | 22.5 | 0.00 | 0.00 | 0.00 | 99 | 1013.4 |
| 20260507061545 | -1 | 34 | 16.1 | 24.1 | 0.00 | 0.00 | 0.00 | 99 | 1013.1 |
| 20260507060541 | -1 | 68 | 12.9 | 17.7 | 0.00 | 0.00 | 0.00 | 99 | 1013.2 |
| 20260507055536 | -1 | 59 | 14.5 | 22.5 | 0.00 | 0.00 | 0.00 | 99 | 1013.1 |
| 20260507054532 | -1 | 66 | 9.7 | 17.7 | 0.00 | 0.00 | 0.00 | 99 | 1013.1 |
| 20260507053528 | -1 | 30 | 14.5 | 20.9 | 0.00 | 0.00 | 0.00 | 99 | 1012.9 |
| 20260507052526 | -1 | 56 | 9.7 | 17.7 | 0.00 | 0.00 | 0.00 | 99 | 1012.8 |
| 20260507051522 | -1 | 58 | 9.7 | 17.7 | 0.00 | 0.00 | 0.00 | 99 | 1012.7 |
| 20260507050517 | -1 | 54 | 6.4 | 14.5 | 0.00 | 0.00 | 0.00 | 99 | 1012.6 |
| 20260507045614 | -1 | 40 | 8.0 | 12.9 | 0.00 | 0.00 | 0.00 | 99 | 1012.5 |
| 20260507044629 | -1 | 78 | 8.0 | 14.5 | 0.00 | 0.00 | 0.00 | 98 | 1012.6 |
| 20260507043606 | -1 | 48 | 11.3 | 17.7 | 0.00 | 0.00 | 0.00 | 96 | 1012.4 |
| 20260507042603 | -1 | 30 | 8.0 | 12.9 | 0.00 | 0.00 | 0.00 | 98 | 1012.3 |
| 20260507041600 | -1 | 38 | 11.3 | 17.7 | 0.00 | 0.00 | 0.00 | 93 | 1012.4 |
| 20260507040556 | -1 | 34 | 16.1 | 22.5 | 0.00 | 0.00 | 0.00 | 95 | 1012.2 |
| 20260507035553 | -1 | 40 | 14.5 | 20.9 | 0.00 | 0.00 | 0.00 | 98 | 1012.2 |
| 20260507034549 | -1 | 42 | 16.1 | 24.1 | 0.00 | 0.00 | 0.00 | 95 | 1011.9 |
| 20260507033545 | -1 | 30 | 17.7 | 25.7 | 0.00 | 0.00 | 0.00 | 95 | 1011.9 |
| 20260507032601 | -1 | 45 | 16.1 | 20.9 | 0.00 | 0.00 | 0.00 | 94 | 1012.0 |
| 20260507031537 | -1 | 46 | 14.5 | 17.7 | 0.00 | 0.00 | 0.00 | 95 | 1011.9 |
| 20260507030533 | -1 | 51 | 8.0 | 12.9 | 0.00 | 0.00 | 0.00 | 94 | 1012.1 |
| 20260507025530 | -1 | 39 | 9.7 | 17.7 | 0.00 | 0.00 | 0.00 | 95 | 1012.0 |
| 20260507024526 | -1 | 33 | 12.9 | 17.7 | 0.00 | 0.00 | 0.00 | 95 | 1011.9 |
| 20260507023522 | -1 | 37 | 16.1 | 24.1 | 0.00 | 0.00 | 0.00 | 97 | 1011.8 |
| 20260507022517 | -1 | 37 | 16.1 | 22.5 | 0.00 | 0.00 | 0.00 | 99 | 1011.7 |
| 20260507021634 | -1 | 44 | 14.5 | 20.9 | 0.00 | 0.00 | 0.00 | 99 | 1011.7 |
| 20260507020610 | -1 | 40 | 9.7 | 17.7 | 0.00 | 0.00 | 0.00 | 99 | 1011.6 |
| 20260507015604 | -1 | 43 | 12.9 | 20.9 | 0.00 | 0.00 | 0.00 | 99 | 1011.6 |
| 20260507014622 | -1 | 41 | 14.5 | 20.9 | 0.00 | 0.00 | 0.00 | 99 | 1011.5 |
| 20260507013557 | -1 | 42 | 12.9 | 22.5 | 0.00 | 0.00 | 0.00 | 99 | 1011.4 |
| 20260507012553 | -1 | 38 | 16.1 | 24.1 | 0.00 | 0.00 | 0.00 | 99 | 1011.2 |
| 20260507011551 | -1 | 38 | 14.5 | 22.5 | 0.00 | 0.00 | 0.00 | 99 | 1011.3 |
| 20260507010546 | -1 | 70 | 11.3 | 17.7 | 0.00 | 0.00 | 0.00 | 99 | 1011.1 |
| 20260507005541 | -1 | 64 | 14.5 | 17.7 | 0.00 | 0.00 | 0.00 | 99 | 1011.1 |
| 20260507004537 | -1 | 41 | 16.1 | 22.5 | 0.00 | 0.00 | 0.00 | 99 | 1011.1 |
| 20260507003533 | -1 | 30 | 16.1 | 20.9 | 0.00 | 0.00 | 0.00 | 97 | 1011.0 |
| 20260507002551 | -1 | 33 | 17.7 | 24.1 | 0.00 | 0.00 | 0.00 | 94 | 1011.0 |
| 20260507001527 | -1 | 38 | 12.9 | 20.9 | 0.00 | 0.00 | 0.00 | 93 | 1011.0 |
| 20260507000524 | -1 | 45 | 14.5 | 20.9 | 0.00 | 0.00 | 0.00 | 99 | 1011.0 |
| 20260506235520 | -1 | 41 | 14.5 | 22.5 | 0.00 | 0.00 | 0.00 | 96 | 1011.1 |
| 20260506234517 | -1 | 55 | 17.7 | 25.7 | 0.00 | 0.00 | 0.00 | 94 | 1010.8 |
| 20260506233612 | -1 | 36 | 12.9 | 24.1 | 0.00 | 0.00 | 0.00 | 96 | 1010.8 |
| 20260506232608 | -1 | 34 | 14.5 | 22.5 | 0.00 | 0.00 | 0.00 | 95 | 1010.8 |
| 20260506231603 | -1 | 52 | 14.5 | 22.5 | 0.00 | 0.00 | 0.00 | 93 | 1010.8 |
| 20260506230600 | -1 | 34 | 17.7 | 24.1 | 0.00 | 0.00 | 0.00 | 98 | 1010.9 |
| 20260506225557 | -1 | 34 | 17.7 | 22.5 | 0.00 | 0.00 | 0.00 | 99 | 1010.7 |
| 20260506224553 | -1 | 56 | 14.5 | 22.5 | 0.00 | 0.00 | 0.00 | 97 | 1010.5 |
| 20260506223609 | -1 | 27 | 14.5 | 22.5 | 0.00 | 0.00 | 0.00 | 96 | 1010.6 |
| 20260506222544 | -1 | 33 | 16.1 | 20.9 | 0.00 | 0.00 | 0.00 | 93 | 1010.5 |
| 20260506221540 | -1 | 45 | 12.9 | 17.7 | 0.00 | 0.00 | 0.00 | 97 | 1010.6 |
| 20260506220556 | -1 | 50 | 11.3 | 17.7 | 0.00 | 0.00 | 0.00 | 95 | 1010.6 |
| 20260506215532 | -1 | 49 | 9.7 | 20.9 | 0.00 | 0.00 | 0.00 | 99 | 1010.5 |
| 20260506214527 | -1 | 60 | 4.8 | 9.7 | 0.00 | 0.00 | 0.00 | 99 | 1010.4 |
| 20260506213523 | -1 | 168 | 8.0 | 12.9 | 0.00 | 0.00 | 0.00 | 99 | 1010.4 |
| 20260506212521 | -1 | 115 | 8.0 | 12.9 | 0.00 | 0.00 | 0.00 | 99 | 1010.3 |
| 20260506211517 | -1 | 7 | 8.0 | 22.5 | 0.00 | 0.00 | 0.00 | 99 | 1010.2 |
| 20260506210633 | -1 | 151 | 8.0 | 20.9 | 0.00 | 0.00 | 0.00 | 99 | 1009.9 |
| 20260506205629 | -1 | 51 | 9.7 | 29.0 | 0.00 | 0.00 | 0.00 | 99 | 1010.2 |
| 20260506204605 | -1 | 71 | 9.7 | 22.5 | 0.00 | 0.00 | 0.00 | 96 | 1010.2 |
| 20260506203600 | -1 | 15 | 8.0 | 17.7 | 0.00 | 0.00 | 0.00 | 93 | 1010.2 |
| 20260506202557 | -1 | 306 | 6.4 | 14.5 | 0.00 | 0.00 | 0.00 | 93 | 1010.1 |
| 20260506201554 | -1 | 108 | 9.7 | 20.9 | 0.00 | 0.00 | 0.00 | 93 | 1010.0 |
| 20260506200610 | -1 | 116 | 8.0 | 14.5 | 0.00 | 0.00 | 0.00 | 93 | 1010.0 |
| 20260506195547 | -1 | 129 | 4.8 | 11.3 | 0.00 | 0.00 | 0.00 | 93 | 1010.0 |
| 20260506194545 | -1 | 85 | 4.8 | 14.5 | 0.00 | 0.00 | 0.00 | 93 | 1009.9 |
| 20260506193539 | -1 | 103 | 4.8 | 12.9 | 0.00 | 0.00 | 0.00 | 93 | 1009.9 |
| 20260506192535 | -1 | 78 | 3.2 | 11.3 | 0.00 | 0.00 | 0.00 | 95 | 1010.1 |
| 20260506191531 | -1 | 38 | 4.8 | 14.5 | 0.00 | 0.00 | 0.00 | 96 | 1010.0 |
| 20260506190528 | -1 | 127 | 4.8 | 12.9 | 0.00 | 0.00 | 0.00 | 95 | 1009.9 |
| 20260506185524 | -1 | 33 | 6.4 | 17.7 | 0.00 | 0.00 | 0.00 | 93 | 1009.8 |
| 20260506184521 | -1 | 39 | 9.7 | 27.4 | 0.00 | 0.00 | 0.00 | 93 | 1009.7 |
| 20260506183516 | -1 | 82 | 6.4 | 17.7 | 0.00 | 0.00 | 0.00 | 93 | 1009.8 |
| 20260506182612 | -1 | 116 | 4.8 | 17.7 | 0.00 | 0.00 | 0.00 | 93 | 1009.5 |
| 20260506181607 | -1 | 316 | 8.0 | 17.7 | 0.00 | 0.00 | 0.00 | 93 | 1009.4 |
| 20260506180603 | -1 | 0 | 6.4 | 12.9 | 0.00 | 0.00 | 0.00 | 93 | 1009.2 |
| 20260506175559 | -1 | 75 | 4.8 | 12.9 | 0.00 | 0.00 | 0.00 | 93 | 1009.3 |
| 20260506174554 | -1 | 75 | 6.4 | 14.5 | 0.00 | 0.00 | 0.00 | 93 | 1009.2 |
| 20260506173552 | -1 | 91 | 4.8 | 17.7 | 0.00 | 0.00 | 0.00 | 96 | 1009.1 |
| 20260506172548 | -1 | 94 | 8.0 | 17.7 | 0.00 | 0.00 | 0.00 | 96 | 1008.9 |